Time;durP1;ratioP1;P1;durP2;ratioP2;P2;SDS_P1;SDS_P2;PMS_P1;PMS_P2;Temp;Humidity;BMP_temperature;BMP_pressure;BME280_temperature;BME280_humidity;BME280_pressure;Samples;Min_cycle;Max_cycle;Signal;HPM_P1;HPM_P2
2023/05/12 00:01:49;;;;;;;;;4.00;3.00;;;;;-149.00;100.00;66333.84;5101616;27;55865;-73
2023/05/12 00:04:14;;;;;;;;;5.00;3.00;;;;;-149.00;100.00;66333.84;5101915;27;45291;-73
2023/05/12 00:06:39;;;;;;;;;3.67;3.00;;;;;-149.00;100.00;66333.84;5101907;27;45306;-72
2023/05/12 00:09:05;;;;;;;;;7.00;5.00;;;;;-149.00;100.00;66333.84;5102047;27;57102;-73
2023/05/12 00:11:30;;;;;;;;;8.00;5.00;;;;;-149.00;100.00;66333.84;5084119;27;45289;-73
2023/05/12 00:13:55;;;;;;;;;4.00;3.33;;;;;-149.00;100.00;66333.84;5102714;27;45320;-73
2023/05/12 00:16:21;;;;;;;;;5.33;5.00;;;;;-149.00;100.00;66333.84;5102340;27;45341;-73
2023/05/12 00:18:46;;;;;;;;;5.67;5.00;;;;;-149.00;100.00;66333.84;5083516;27;49114;-73
2023/05/12 00:21:11;;;;;;;;;4.00;4.00;;;;;-149.00;100.00;66333.84;5083769;27;45439;-73
2023/05/12 00:23:37;;;;;;;;;4.00;4.00;;;;;-149.00;100.00;66333.84;5102463;27;45871;-73
2023/05/12 00:26:03;;;;;;;;;6.33;5.00;;;;;-149.00;100.00;66333.84;5102116;27;45457;-73
2023/05/12 00:28:28;;;;;;;;;4.67;4.67;;;;;-149.00;100.00;66333.84;5101995;27;45654;-73
2023/05/12 00:30:53;;;;;;;;;5.00;5.00;;;;;-149.00;100.00;66333.84;5080217;28;50709;-73
2023/05/12 00:33:18;;;;;;;;;2.67;2.67;;;;;-149.00;100.00;66333.84;5101397;27;45248;-73
2023/05/12 00:35:44;;;;;;;;;2.00;2.00;;;;;-149.00;100.00;66333.84;5079940;28;45966;-73
2023/05/12 00:38:11;;;;;;;;;3.33;3.00;;;;;-149.00;100.00;66333.84;5099726;27;45153;-73
2023/05/12 00:40:36;;;;;;;;;3.00;3.00;;;;;-149.00;100.00;66333.84;5101624;27;45264;-73
2023/05/12 00:43:03;;;;;;;;;4.00;3.00;;;;;-149.00;100.00;66333.84;5102100;27;45450;-73
2023/05/12 00:45:28;;;;;;;;;5.00;4.00;;;;;-149.00;100.00;66333.84;5101839;27;45337;-73
2023/05/12 00:47:54;;;;;;;;;5.00;5.00;;;;;-149.00;100.00;66333.84;5101510;27;45348;-74
2023/05/12 00:50:20;;;;;;;;;5.00;5.00;;;;;-149.00;100.00;66333.84;5083324;27;45359;-73
2023/05/12 00:52:47;;;;;;;;;5.67;4.00;;;;;-149.00;100.00;66333.84;5101945;27;45305;-72
2023/05/12 00:55:12;;;;;;;;;3.00;3.00;;;;;-149.00;100.00;66333.84;5083240;27;47502;-73
2023/05/12 00:57:39;;;;;;;;;3.00;3.00;;;;;-149.00;100.00;66333.84;5083278;27;47453;-73
2023/05/12 01:00:06;;;;;;;;;5.67;4.00;;;;;-149.00;100.00;66333.84;5083179;27;45489;-73
2023/05/12 01:02:31;;;;;;;;;6.00;4.33;;;;;-149.00;100.00;66333.84;5101437;27;45349;-73
2023/05/12 01:04:57;;;;;;;;;3.67;3.67;;;;;-149.00;100.00;66333.84;5083062;27;46047;-73
2023/05/12 01:07:24;;;;;;;;;4.00;3.67;;;;;-149.00;100.00;66333.84;5101295;27;46020;-73
2023/05/12 01:09:56;;;;;;;;;5.00;5.00;;;;;-149.00;100.00;66333.84;5082879;27;45372;-73
2023/05/12 01:12:22;;;;;;;;;3.00;3.00;;;;;-149.00;100.00;66333.84;5083132;27;45311;-73
2023/05/12 01:14:49;;;;;;;;;5.00;4.33;;;;;-149.00;100.00;66333.84;5101446;27;45354;-73
2023/05/12 01:17:18;;;;;;;;;3.00;3.00;;;;;-149.00;100.00;66333.84;5101291;27;46249;-73
2023/05/12 01:19:52;;;;;;;;;4.00;4.00;;;;;-149.00;100.00;66333.84;5100431;27;45313;-73
2023/05/12 01:22:18;;;;;;;;;4.33;4.33;;;;;-149.00;100.00;66333.84;5101376;27;45207;-73
2023/05/12 01:24:53;;;;;;;;;4.00;3.00;;;;;-149.00;100.00;66333.84;5082742;27;46102;-73
2023/05/12 01:27:20;;;;;;;;;4.00;4.00;;;;;-149.00;100.00;66333.84;5101276;27;45414;-73
2023/05/12 01:29:47;;;;;;;;;4.33;4.33;;;;;-149.00;100.00;66333.84;5091611;27;45362;-73
2023/05/12 01:32:13;;;;;;;;;3.00;3.00;;;;;-149.00;100.00;66333.84;5101271;27;45690;-73
2023/05/12 01:34:41;;;;;;;;;6.00;5.33;;;;;-149.00;100.00;66333.84;5082259;27;46333;-73
2023/05/12 01:37:07;;;;;;;;;4.67;4.00;;;;;-149.00;100.00;66333.84;5100844;27;46044;-74
2023/05/12 01:39:32;;;;;;;;;5.00;5.00;;;;;-149.00;100.00;66333.84;5078864;28;45422;-73
2023/05/12 01:41:58;;;;;;;;;3.33;2.00;;;;;-149.00;100.00;66333.84;5080508;28;45744;-73
2023/05/12 01:44:23;;;;;;;;;4.00;4.00;;;;;-149.00;100.00;66333.84;5080706;28;45364;-73
2023/05/12 01:46:48;;;;;;;;;2.33;2.33;;;;;-149.00;100.00;66333.84;5084862;27;45269;-73
2023/05/12 01:49:14;;;;;;;;;5.33;5.33;;;;;-149.00;100.00;66333.84;5081928;27;50105;-73
2023/05/12 01:51:39;;;;;;;;;4.00;4.00;;;;;-149.00;100.00;66333.84;5082459;27;45259;-73
2023/05/12 01:54:05;;;;;;;;;4.67;4.67;;;;;-149.00;100.00;66333.84;5099450;27;46119;-73
2023/05/12 01:56:30;;;;;;;;;3.00;3.00;;;;;-149.00;100.00;66333.84;5100862;27;45307;-73
2023/05/12 01:58:55;;;;;;;;;2.67;2.67;;;;;-149.00;100.00;66333.84;5082345;27;45939;-73
2023/05/12 02:01:23;;;;;;;;;4.00;4.00;;;;;-149.00;100.00;66333.84;5100705;27;47412;-73
2023/05/12 02:03:49;;;;;;;;;3.33;3.00;;;;;-149.00;100.00;66333.84;5100525;27;45507;-74
2023/05/12 02:06:14;;;;;;;;;3.33;3.33;;;;;-149.00;100.00;66333.84;5100425;27;45381;-74
2023/05/12 02:08:39;;;;;;;;;6.67;5.00;;;;;-149.00;100.00;66333.84;5081872;27;53989;-74
2023/05/12 02:11:06;;;;;;;;;6.67;5.33;;;;;-149.00;100.00;66333.84;5100364;27;50996;-74
2023/05/12 02:13:31;;;;;;;;;7.67;5.00;;;;;-149.00;100.00;66333.84;5100519;27;45507;-74
2023/05/12 02:15:57;;;;;;;;;3.67;3.67;;;;;-149.00;100.00;66333.84;5100422;27;45296;-73
2023/05/12 02:18:22;;;;;;;;;5.00;5.00;;;;;-149.00;100.00;66333.84;5100338;27;45221;-74
2023/05/12 02:20:47;;;;;;;;;4.67;3.00;;;;;-149.00;100.00;66333.84;5100488;27;45229;-73
2023/05/12 02:23:12;;;;;;;;;4.33;4.33;;;;;-149.00;100.00;66333.84;5100415;27;45444;-74
2023/05/12 02:25:38;;;;;;;;;10.33;6.33;;;;;-149.00;100.00;66333.84;5081431;27;55519;-74
2023/05/12 02:28:03;;;;;;;;;7.33;6.33;;;;;-149.00;100.00;66333.84;5098534;27;59753;-73
2023/05/12 02:30:29;;;;;;;;;5.33;4.33;;;;;-149.00;100.00;66333.84;5100176;27;45185;-73
2023/05/12 02:32:55;;;;;;;;;7.67;6.33;;;;;-149.00;100.00;66333.84;5099952;27;45191;-73
2023/05/12 02:35:20;;;;;;;;;5.33;5.33;;;;;-149.00;100.00;66333.84;5081531;27;47825;-74
2023/05/12 02:37:45;;;;;;;;;5.00;4.33;;;;;-149.00;100.00;66333.84;5100156;27;45297;-74
2023/05/12 02:40:11;;;;;;;;;5.00;5.00;;;;;-149.00;100.00;66333.84;5099990;27;47942;-73
2023/05/12 02:42:37;;;;;;;;;3.67;3.67;;;;;-149.00;100.00;66333.84;5100028;27;45653;-74
2023/05/12 02:45:03;;;;;;;;;5.00;5.00;;;;;-149.00;100.00;66333.84;5099998;27;46214;-74
2023/05/12 02:47:31;;;;;;;;;9.33;7.00;;;;;-149.00;100.00;66333.84;5099713;27;45367;-73
2023/05/12 02:49:57;;;;;;;;;4.00;4.00;;;;;-149.00;100.00;66333.84;5081774;27;45229;-73
2023/05/12 02:52:22;;;;;;;;;5.00;4.67;;;;;-149.00;100.00;66333.84;5099822;27;45216;-74
2023/05/12 02:54:48;;;;;;;;;6.00;5.67;;;;;-149.00;100.00;66333.84;5100002;27;45323;-74
2023/05/12 02:57:13;;;;;;;;;5.00;5.00;;;;;-149.00;100.00;66333.84;5099844;27;51833;-74
2023/05/12 02:59:38;;;;;;;;;7.67;7.33;;;;;-149.00;100.00;66333.84;5081495;27;45228;-74
2023/05/12 03:02:04;;;;;;;;;7.67;7.67;;;;;-149.00;100.00;66333.84;5081322;27;48408;-73
2023/05/12 03:04:29;;;;;;;;;5.33;5.33;;;;;-149.00;100.00;66333.84;5099636;27;45433;-73
2023/05/12 03:06:56;;;;;;;;;6.00;6.00;;;;;-149.00;100.00;66333.84;5099843;27;45149;-74
2023/05/12 03:09:21;;;;;;;;;5.33;5.33;;;;;-149.00;100.00;66333.84;5099880;27;45513;-74
2023/05/12 03:11:46;;;;;;;;;5.00;4.67;;;;;-149.00;100.00;66333.84;5099663;27;45375;-73
2023/05/12 03:14:12;;;;;;;;;7.67;7.00;;;;;-149.00;100.00;66333.84;5099483;27;53920;-74
2023/05/12 03:16:37;;;;;;;;;2.33;2.33;;;;;-149.00;100.00;66333.84;5081338;27;45739;-73
2023/05/12 03:19:03;;;;;;;;;4.67;4.00;;;;;-149.00;100.00;66333.84;5081239;27;45358;-74
2023/05/12 03:21:29;;;;;;;;;6.00;5.00;;;;;-149.00;100.00;66333.84;5081089;27;47125;-74
2023/05/12 03:23:57;;;;;;;;;6.33;6.33;;;;;-149.00;100.00;66333.84;5099250;27;46389;-74
2023/05/12 03:26:22;;;;;;;;;4.00;4.00;;;;;-149.00;100.00;66333.84;5099621;27;45352;-74
2023/05/12 03:28:47;;;;;;;;;7.33;5.67;;;;;-149.00;100.00;66333.84;5099349;27;45117;-74
2023/05/12 03:31:13;;;;;;;;;4.67;4.67;;;;;-149.00;100.00;66333.84;5099560;27;45421;-74
2023/05/12 03:33:38;;;;;;;;;6.33;5.33;;;;;-149.00;100.00;66333.84;5099153;27;51461;-74
2023/05/12 03:36:04;;;;;;;;;5.67;5.00;;;;;-149.00;100.00;66333.84;5099213;27;45268;-73
2023/05/12 03:38:30;;;;;;;;;4.00;4.00;;;;;-149.00;100.00;66333.84;5080909;27;45285;-73
2023/05/12 03:41:05;;;;;;;;;5.33;4.67;;;;;-149.00;100.00;66333.84;5099473;27;45300;-73
2023/05/12 03:43:31;;;;;;;;;7.00;7.00;;;;;-149.00;100.00;66333.84;5102876;27;46018;-73
2023/05/12 03:45:57;;;;;;;;;6.00;6.00;;;;;-149.00;100.00;66333.84;5084251;27;45494;-73
2023/05/12 03:48:24;;;;;;;;;6.00;6.00;;;;;-149.00;100.00;66333.84;5084409;27;45363;-73
2023/05/12 03:50:49;;;;;;;;;6.00;5.67;;;;;-149.00;100.00;66333.84;5102690;27;45324;-73
2023/05/12 03:53:14;;;;;;;;;4.33;4.33;;;;;-149.00;100.00;66333.84;5102475;27;47872;-73
2023/05/12 03:55:40;;;;;;;;;6.67;5.67;;;;;-149.00;100.00;66333.84;5102409;27;51703;-73
2023/05/12 03:58:06;;;;;;;;;6.00;5.00;;;;;-149.00;100.00;66333.84;5060012;28;45336;-73
2023/05/12 04:00:32;;;;;;;;;6.00;6.00;;;;;-149.00;100.00;66333.84;5068209;28;45320;-73
2023/05/12 04:02:57;;;;;;;;;4.33;4.33;;;;;-149.00;100.00;66333.84;5049155;28;46888;-73
2023/05/12 04:05:23;;;;;;;;;6.33;6.33;;;;;-149.00;100.00;66333.84;5080726;28;45150;-73
2023/05/12 04:07:48;;;;;;;;;5.00;5.00;;;;;-149.00;100.00;66333.84;5063926;28;45468;-73
2023/05/12 04:10:13;;;;;;;;;4.67;4.67;;;;;-149.00;100.00;66333.84;5081959;28;45207;-73
2023/05/12 04:12:39;;;;;;;;;6.00;6.00;;;;;-149.00;100.00;66333.84;5063146;28;47949;-73
2023/05/12 04:15:05;;;;;;;;;7.00;7.00;;;;;-149.00;100.00;66333.84;5081943;28;45154;-73
2023/05/12 04:17:30;;;;;;;;;6.00;6.00;;;;;-149.00;100.00;66333.84;5081713;28;45485;-73
2023/05/12 04:19:56;;;;;;;;;6.00;5.33;;;;;-149.00;100.00;66333.84;5063419;28;46323;-73
2023/05/12 04:22:21;;;;;;;;;7.00;7.00;;;;;-149.00;100.00;66333.84;5081598;28;45927;-73
2023/05/12 04:24:46;;;;;;;;;9.00;8.00;;;;;-149.00;100.00;66333.84;5081782;28;45375;-73
2023/05/12 04:27:12;;;;;;;;;8.67;6.33;;;;;-149.00;100.00;66333.84;5081549;28;49368;-73
2023/05/12 04:29:37;;;;;;;;;7.00;6.00;;;;;-149.00;100.00;66333.84;5059269;28;47215;-73
2023/05/12 04:32:02;;;;;;;;;6.67;5.67;;;;;-149.00;100.00;66333.84;5061008;28;46899;-73
2023/05/12 04:34:28;;;;;;;;;10.33;7.67;;;;;-149.00;100.00;66333.84;5072391;28;45467;-73
2023/05/12 04:36:53;;;;;;;;;6.33;6.33;;;;;-149.00;100.00;66333.84;5061302;28;45368;-72
2023/05/12 04:39:18;;;;;;;;;6.33;6.33;;;;;-149.00;100.00;66333.84;5049113;28;62400;-73
2023/05/12 04:41:44;;;;;;;;;6.67;6.33;;;;;-149.00;100.00;66333.84;5060951;28;51050;-74
2023/05/12 04:44:09;;;;;;;;;6.67;5.00;;;;;-149.00;100.00;66333.84;5059856;28;45427;-74
2023/05/12 04:46:34;;;;;;;;;7.67;6.67;;;;;-149.00;100.00;66333.84;5059946;28;45930;-75
2023/05/12 04:49:00;;;;;;;;;6.00;5.00;;;;;-149.00;100.00;66333.84;5060708;28;45395;-73
2023/05/12 04:51:25;;;;;;;;;6.33;5.67;;;;;-149.00;100.00;66333.84;5080021;28;51574;-74
2023/05/12 04:53:50;;;;;;;;;6.67;6.00;;;;;-149.00;100.00;66333.84;5078308;28;45732;-73
2023/05/12 04:56:16;;;;;;;;;5.67;5.33;;;;;-149.00;100.00;66333.84;5081176;28;49836;-73
2023/05/12 04:58:41;;;;;;;;;7.00;5.00;;;;;-149.00;100.00;66333.84;5081249;28;45473;-73
2023/05/12 05:01:07;;;;;;;;;9.67;8.33;;;;;-149.00;100.00;66333.84;5081075;28;45279;-74
2023/05/12 05:03:32;;;;;;;;;7.67;7.33;;;;;-149.00;100.00;66333.84;5080702;28;45155;-74
2023/05/12 05:05:57;;;;;;;;;6.00;5.33;;;;;-149.00;100.00;66333.84;5079774;28;45321;-74
2023/05/12 05:08:23;;;;;;;;;5.00;5.00;;;;;-149.00;100.00;66333.84;5080756;28;50162;-74
2023/05/12 05:10:48;;;;;;;;;7.00;6.00;;;;;-149.00;100.00;66333.84;5079659;28;47342;-74
2023/05/12 05:13:13;;;;;;;;;7.00;6.00;;;;;-149.00;100.00;66333.84;5080984;28;45648;-74
2023/05/12 05:15:39;;;;;;;;;6.00;6.00;;;;;-149.00;100.00;66333.84;5081184;28;45579;-74
2023/05/12 05:18:04;;;;;;;;;7.00;7.00;;;;;-149.00;100.00;66333.84;5080429;28;49461;-73
2023/05/12 05:20:31;;;;;;;;;6.33;6.33;;;;;-149.00;100.00;66333.84;5098041;27;45425;-73
2023/05/12 05:22:57;;;;;;;;;6.00;5.67;;;;;-149.00;100.00;66333.84;5082885;27;45370;-74
2023/05/12 05:25:22;;;;;;;;;5.67;5.00;;;;;-149.00;100.00;66333.84;5082894;27;45467;-73
2023/05/12 05:27:48;;;;;;;;;8.00;6.00;;;;;-149.00;100.00;66333.84;5101193;27;45391;-73
2023/05/12 05:30:13;;;;;;;;;6.67;6.67;;;;;-149.00;100.00;66333.84;5100517;27;46336;-73
2023/05/12 05:32:39;;;;;;;;;5.00;5.00;;;;;-149.00;100.00;66333.84;5100854;27;45389;-73
2023/05/12 05:35:06;;;;;;;;;5.33;5.00;;;;;-149.00;100.00;66333.84;5101116;27;45438;-73
2023/05/12 05:37:31;;;;;;;;;6.67;6.67;;;;;-149.00;100.00;66333.84;5100942;27;45306;-73
2023/05/12 05:39:57;;;;;;;;;6.33;6.33;;;;;-149.00;100.00;66333.84;5100617;27;46113;-73
2023/05/12 05:42:22;;;;;;;;;8.67;6.33;;;;;-149.00;100.00;66333.84;5082504;27;45311;-73
2023/05/12 05:44:47;;;;;;;;;7.00;6.00;;;;;-149.00;100.00;66333.84;5099684;27;45476;-73
2023/05/12 05:47:13;;;;;;;;;4.00;4.00;;;;;-149.00;100.00;66333.84;5100541;27;45581;-74
2023/05/12 05:49:38;;;;;;;;;4.33;3.33;;;;;-149.00;100.00;66333.84;5100753;27;45234;-74
2023/05/12 05:52:03;;;;;;;;;6.00;6.00;;;;;-149.00;100.00;66333.84;5099708;27;51871;-74
2023/05/12 05:54:29;;;;;;;;;5.00;4.67;;;;;-149.00;100.00;66333.84;5082996;27;45235;-76
2023/05/12 05:56:54;;;;;;;;;4.33;4.33;;;;;-149.00;100.00;66333.84;5080109;28;50580;-73
2023/05/12 05:59:20;;;;;;;;;5.00;5.00;;;;;-149.00;100.00;66333.84;5080360;28;45382;-74
2023/05/12 06:01:45;;;;;;;;;6.00;4.00;;;;;-149.00;100.00;66333.84;5080051;28;51975;-74
2023/05/12 06:04:10;;;;;;;;;2.33;2.33;;;;;-149.00;100.00;66333.84;5061521;28;45879;-74
2023/05/12 06:06:36;;;;;;;;;3.67;3.33;;;;;-149.00;100.00;66333.84;5084349;27;53328;-74
2023/05/12 06:09:01;;;;;;;;;3.33;3.00;;;;;-149.00;100.00;66333.84;5077993;27;47842;-73
2023/05/12 06:11:27;;;;;;;;;3.67;3.00;;;;;-149.00;100.00;66333.84;5100641;27;45453;-73
2023/05/12 06:13:52;;;;;;;;;5.00;5.00;;;;;-149.00;100.00;66333.84;5100440;27;48426;-73
2023/05/12 06:16:17;;;;;;;;;4.67;4.67;;;;;-149.00;100.00;66333.84;5100177;27;53749;-73
2023/05/12 06:18:43;;;;;;;;;2.67;2.67;;;;;-149.00;100.00;66333.84;5100118;27;51155;-73
2023/05/12 06:21:08;;;;;;;;;4.33;3.67;;;;;-149.00;100.00;66333.84;5100168;27;47931;-73
2023/05/12 06:23:33;;;;;;;;;6.67;5.00;;;;;-149.00;100.00;66333.84;5082045;27;45351;-73
2023/05/12 06:25:59;;;;;;;;;5.00;3.33;;;;;-149.00;100.00;66333.84;5082049;27;46262;-74
2023/05/12 06:28:27;;;;;;;;;4.00;4.00;;;;;-149.00;100.00;66333.84;5100278;27;45499;-73
2023/05/12 06:30:52;;;;;;;;;6.33;5.00;;;;;-149.00;100.00;66333.84;5082012;27;45223;-73
2023/05/12 06:33:18;;;;;;;;;3.33;3.33;;;;;-149.00;100.00;66333.84;5098903;27;45676;-73
2023/05/12 06:35:43;;;;;;;;;5.33;5.33;;;;;-149.00;100.00;66333.84;5098699;27;45377;-73
2023/05/12 06:38:08;;;;;;;;;4.67;3.33;;;;;-149.00;100.00;66333.84;5099453;27;45302;-73
2023/05/12 06:40:34;;;;;;;;;5.00;3.33;;;;;-149.00;100.00;66333.84;5099050;27;45358;-74
2023/05/12 06:42:59;;;;;;;;;6.33;4.67;;;;;-149.00;100.00;66333.84;5099646;27;45294;-74
2023/05/12 06:45:26;;;;;;;;;7.00;5.00;;;;;-149.00;100.00;66333.84;5099951;27;45275;-74
2023/05/12 06:47:51;;;;;;;;;4.33;4.33;;;;;-149.00;100.00;66333.84;5099934;27;45412;-73
2023/05/12 06:50:16;;;;;;;;;5.33;4.00;;;;;-149.00;100.00;66333.84;5099684;27;45354;-73
2023/05/12 06:52:42;;;;;;;;;5.00;4.67;;;;;-149.00;100.00;66333.84;5100203;27;45516;-73
2023/05/12 06:55:08;;;;;;;;;6.00;6.00;;;;;-149.00;100.00;66333.84;5081720;27;47341;-74
2023/05/12 06:57:33;;;;;;;;;4.00;4.00;;;;;-149.00;100.00;66333.84;5099885;27;45360;-74
2023/05/12 07:00:00;;;;;;;;;6.67;5.33;;;;;-149.00;100.00;66333.84;5100015;27;45306;-74
2023/05/12 07:02:26;;;;;;;;;6.67;6.00;;;;;-149.00;100.00;66333.84;5099741;27;45349;-74
2023/05/12 07:04:51;;;;;;;;;6.00;6.00;;;;;-149.00;100.00;66333.84;5099863;27;45558;-75
2023/05/12 07:07:16;;;;;;;;;7.00;6.33;;;;;-149.00;100.00;66333.84;5099327;27;58759;-73
2023/05/12 07:09:44;;;;;;;;;6.33;6.00;;;;;-149.00;100.00;66333.84;5099434;27;52300;-73
2023/05/12 07:12:09;;;;;;;;;7.67;7.67;;;;;-149.00;100.00;66333.84;5100030;27;45306;-74
2023/05/12 07:14:34;;;;;;;;;8.00;7.00;;;;;-149.00;100.00;66333.84;5099702;27;45199;-74
2023/05/12 07:16:59;;;;;;;;;8.33;7.00;;;;;-149.00;100.00;66333.84;5100974;27;49879;-74
2023/05/12 07:19:25;;;;;;;;;7.67;7.67;;;;;-149.00;100.00;66333.84;5103067;27;52609;-74
2023/05/12 07:21:50;;;;;;;;;7.67;7.00;;;;;-149.00;100.00;66333.84;5103404;27;45317;-73
2023/05/12 07:24:15;;;;;;;;;6.00;6.00;;;;;-149.00;100.00;66333.84;5103204;27;47083;-73
2023/05/12 07:26:42;;;;;;;;;6.67;6.67;;;;;-149.00;100.00;66333.84;5084640;27;47443;-74
2023/05/12 07:29:09;;;;;;;;;6.00;4.00;;;;;-149.00;100.00;66333.84;5102846;27;45522;-74
2023/05/12 07:31:35;;;;;;;;;6.33;6.33;;;;;-149.00;100.00;66333.84;5081376;28;45345;-74
2023/05/12 07:34:01;;;;;;;;;6.33;5.33;;;;;-149.00;100.00;66333.84;5081197;27;46248;-73
2023/05/12 07:36:27;;;;;;;;;6.33;5.33;;;;;-149.00;100.00;66333.84;5102899;27;46505;-73
2023/05/12 07:38:52;;;;;;;;;6.33;6.00;;;;;-149.00;100.00;66333.84;5102770;27;45735;-74
2023/05/12 07:41:17;;;;;;;;;8.00;5.33;;;;;-149.00;100.00;66333.84;5103229;27;45163;-74
2023/05/12 07:43:43;;;;;;;;;5.00;5.00;;;;;-149.00;100.00;66333.84;5102923;27;45504;-74
2023/05/12 07:46:09;;;;;;;;;7.67;7.67;;;;;-149.00;100.00;66333.84;5102703;27;46443;-74
2023/05/12 07:48:38;;;;;;;;;5.00;5.00;;;;;-149.00;100.00;66333.84;5080788;28;45910;-74
2023/05/12 07:51:04;;;;;;;;;7.00;7.00;;;;;-149.00;100.00;66333.84;5099970;27;45355;-74
2023/05/12 07:53:29;;;;;;;;;6.67;5.67;;;;;-149.00;100.00;66333.84;5102768;27;45324;-73
2023/05/12 07:55:55;;;;;;;;;9.33;6.00;;;;;-149.00;100.00;66333.84;5102683;27;45330;-73
2023/05/12 07:58:20;;;;;;;;;4.33;4.00;;;;;-149.00;100.00;66333.84;5083587;27;50255;-73
2023/05/12 08:00:45;;;;;;;;;4.67;4.67;;;;;-149.00;100.00;66333.84;5103023;27;45302;-73
2023/05/12 08:03:11;;;;;;;;;6.67;5.00;;;;;-149.00;100.00;66333.84;5082141;27;46016;-73
2023/05/12 08:05:37;;;;;;;;;8.33;8.00;;;;;-149.00;100.00;66333.84;5102275;27;45311;-73
2023/05/12 08:08:02;;;;;;;;;7.33;7.33;;;;;-149.00;100.00;66333.84;5102557;27;45242;-73
2023/05/12 08:10:28;;;;;;;;;8.00;7.33;;;;;-149.00;100.00;66333.84;5080822;28;45431;-74
2023/05/12 08:12:54;;;;;;;;;6.00;5.67;;;;;-149.00;100.00;66333.84;5098183;27;45421;-73
2023/05/12 08:15:19;;;;;;;;;7.33;7.00;;;;;-149.00;100.00;66333.84;5102320;27;45430;-74
2023/05/12 08:17:45;;;;;;;;;8.67;8.67;;;;;-149.00;100.00;66333.84;5080479;28;45294;-73
2023/05/12 08:20:10;;;;;;;;;10.33;8.67;;;;;-149.00;100.00;66333.84;5100572;27;45268;-74
2023/05/12 08:22:36;;;;;;;;;12.33;8.67;;;;;-149.00;100.00;66333.84;5102217;27;45441;-73
2023/05/12 08:25:01;;;;;;;;;8.67;7.33;;;;;-149.00;100.00;66333.84;5102170;27;49924;-73
2023/05/12 08:27:28;;;;;;;;;13.00;11.67;;;;;-149.00;100.00;66333.84;5101689;27;45384;-73
2023/05/12 08:29:54;;;;;;;;;7.67;6.67;;;;;-149.00;100.00;66333.84;5102183;27;45302;-74
2023/05/12 08:32:19;;;;;;;;;12.33;9.00;;;;;-149.00;100.00;66333.84;5083472;27;46055;-73
2023/05/12 08:34:44;;;;;;;;;8.33;7.67;;;;;-149.00;100.00;66333.84;5102001;27;46195;-73
2023/05/12 08:37:10;;;;;;;;;11.33;10.00;;;;;-149.00;100.00;66333.84;5083868;27;45277;-73
2023/05/12 08:39:35;;;;;;;;;11.00;8.33;;;;;-149.00;100.00;66333.84;5102083;27;45246;-74
2023/05/12 08:42:22;;;;;;;;;9.00;9.00;;;;;-149.00;100.00;66333.84;5101769;27;45243;-73
2023/05/12 08:44:48;;;;;;;;;8.67;8.00;;;;;-149.00;100.00;66333.84;5101896;27;45450;-73
2023/05/12 08:47:17;;;;;;;;;8.33;8.33;;;;;-149.00;100.00;66333.84;5100343;27;45169;-74
2023/05/12 08:49:44;;;;;;;;;12.67;11.00;;;;;-149.00;100.00;66333.84;5101714;27;45325;-74
2023/05/12 08:52:11;;;;;;;;;10.00;10.00;;;;;-149.00;100.00;66333.84;5083254;27;46093;-75
2023/05/12 08:54:36;;;;;;;;;14.67;14.67;;;;;-149.00;100.00;66333.84;5101788;27;45175;-73
2023/05/12 08:57:03;;;;;;;;;11.67;11.67;;;;;-149.00;100.00;66333.84;5101709;27;45226;-74
2023/05/12 08:59:28;;;;;;;;;15.67;15.67;;;;;-149.00;100.00;66333.84;5101885;27;45230;-73
2023/05/12 09:01:54;;;;;;;;;13.33;11.67;;;;;-149.00;100.00;66333.84;5101233;27;50601;-73
2023/05/12 09:04:20;;;;;;;;;16.33;15.00;;;;;-149.00;100.00;66333.84;5083278;27;45474;-73
2023/05/12 09:06:45;;;;;;;;;17.00;16.67;;;;;-149.00;100.00;66333.84;5082751;27;51547;-74
2023/05/12 09:09:16;;;;;;;;;18.67;17.67;;;;;-149.00;100.00;66333.84;5101597;27;45515;-74
2023/05/12 09:11:42;;;;;;;;;17.67;17.67;;;;;-149.00;100.00;66333.84;5083025;27;46312;-73
2023/05/12 09:14:17;;;;;;;;;14.00;12.33;;;;;-149.00;100.00;66333.84;5082963;27;48638;-73
2023/05/12 09:16:47;;;;;;;;;17.67;15.33;;;;;-149.00;100.00;66333.84;5101401;27;45270;-74
2023/05/12 09:19:19;;;;;;;;;17.00;14.33;;;;;-149.00;100.00;66333.84;5101234;27;45336;-75
2023/05/12 09:21:45;;;;;;;;;21.00;18.67;;;;;-149.00;100.00;66333.84;5101186;27;45194;-74
2023/05/12 09:24:11;;;;;;;;;16.33;14.00;;;;;-149.00;100.00;66333.84;5082819;27;48275;-74
2023/05/12 09:26:54;;;;;;;;;19.33;19.00;;;;;-149.00;100.00;66333.84;5101101;27;48846;-74
2023/05/12 09:29:20;;;;;;;;;16.33;16.33;;;;;-149.00;100.00;66333.84;5101107;27;45263;-74
2023/05/12 09:31:53;;;;;;;;;21.33;20.33;;;;;-149.00;100.00;66333.84;5101119;27;45382;-73
2023/05/12 09:34:25;;;;;;;;;17.67;17.67;;;;;-149.00;100.00;66333.84;5100916;27;45460;-75
2023/05/12 09:36:55;;;;;;;;;20.33;18.00;;;;;-149.00;100.00;66333.84;5101009;27;45346;-73
2023/05/12 09:39:20;;;;;;;;;16.00;14.67;;;;;-149.00;100.00;66333.84;5081869;27;45595;-74
2023/05/12 09:41:46;;;;;;;;;16.67;14.00;;;;;-149.00;100.00;66333.84;5100649;27;51318;-74
2023/05/12 09:44:15;;;;;;;;;17.33;15.67;;;;;-149.00;100.00;66333.84;5100882;27;45906;-74
2023/05/12 09:46:40;;;;;;;;;19.00;17.67;;;;;-149.00;100.00;66333.84;5082704;27;45187;-74
2023/05/12 09:49:06;;;;;;;;;18.67;17.67;;;;;-149.00;100.00;66333.84;5100746;27;45522;-75
2023/05/12 09:51:32;;;;;;;;;17.33;17.33;;;;;-149.00;100.00;66333.84;5100769;27;45570;-74
2023/05/12 09:53:57;;;;;;;;;12.67;12.67;;;;;-149.00;100.00;66333.84;5082440;27;47481;-74
2023/05/12 09:56:26;;;;;;;;;13.33;12.33;;;;;-149.00;100.00;66333.84;5082309;27;45237;-74
2023/05/12 09:58:53;;;;;;;;;13.00;10.33;;;;;-149.00;100.00;66333.84;5082601;27;45386;-74
2023/05/12 10:01:20;;;;;;;;;11.33;10.33;;;;;-149.00;100.00;66333.84;5081975;27;46970;-74
2023/05/12 10:03:49;;;;;;;;;11.00;9.33;;;;;-149.00;100.00;66333.84;5099486;27;45273;-74
2023/05/12 10:06:23;;;;;;;;;9.33;8.33;;;;;-149.00;100.00;66333.84;5081912;27;45509;-75
2023/05/12 10:09:15;;;;;;;;;12.33;11.00;;;;;-149.00;100.00;66333.84;5100592;27;45267;-75
2023/05/12 10:11:41;;;;;;;;;14.67;13.00;;;;;-149.00;100.00;66333.84;5093642;27;45788;-74
2023/05/12 10:14:08;;;;;;;;;11.67;11.67;;;;;-149.00;100.00;66333.84;5100514;27;45413;-75
2023/05/12 10:16:35;;;;;;;;;13.67;12.67;;;;;-149.00;100.00;66333.84;5100426;27;45283;-74
2023/05/12 10:19:03;;;;;;;;;9.00;9.00;;;;;-149.00;100.00;66333.84;5100411;27;45307;-75
2023/05/12 10:21:28;;;;;;;;;12.33;11.33;;;;;-149.00;100.00;66333.84;5100061;27;45438;-75
2023/05/12 10:23:55;;;;;;;;;11.33;11.33;;;;;-149.00;100.00;66333.84;5100354;27;45363;-75
2023/05/12 10:26:22;;;;;;;;;10.67;10.67;;;;;-149.00;100.00;66333.84;5082156;27;45267;-74
2023/05/12 10:28:48;;;;;;;;;10.00;10.00;;;;;-149.00;100.00;66333.84;5100337;27;45232;-75
2023/05/12 10:31:14;;;;;;;;;9.00;9.00;;;;;-149.00;100.00;66333.84;5080661;27;46344;-75
2023/05/12 10:33:40;;;;;;;;;11.33;10.67;;;;;-149.00;100.00;66333.84;5100023;27;46125;-75
2023/05/12 10:36:16;;;;;;;;;12.33;11.67;;;;;-149.00;100.00;66333.84;5099853;27;45224;-75
2023/05/12 10:38:41;;;;;;;;;12.00;11.00;;;;;-149.00;100.00;66333.84;5100307;27;45408;-75
2023/05/12 10:41:06;;;;;;;;;11.67;11.67;;;;;-149.00;100.00;66333.84;5079412;27;46543;-75
2023/05/12 10:43:44;;;;;;;;;11.00;11.00;;;;;-149.00;100.00;66333.84;5077828;28;47273;-74
2023/05/12 10:46:16;;;;;;;;;12.33;12.33;;;;;-149.00;100.00;66333.84;5078237;27;45658;-75
2023/05/12 10:49:20;;;;;;;;;12.00;10.67;;;;;-149.00;100.00;66333.84;5099208;27;45412;-75
2023/05/12 10:51:48;;;;;;;;;14.00;12.67;;;;;-149.00;100.00;66333.84;5062605;27;46133;-75
2023/05/12 10:54:23;;;;;;;;;16.33;15.67;;;;;-149.00;100.00;66333.84;5102772;27;46296;-74
2023/05/12 10:56:48;;;;;;;;;12.33;11.00;;;;;-149.00;100.00;66333.84;5103463;27;45471;-74
2023/05/12 10:59:17;;;;;;;;;9.00;8.00;;;;;-149.00;100.00;66333.84;5102069;27;45422;-74
2023/05/12 11:02:04;;;;;;;;;7.33;6.33;;;;;-149.00;100.00;66333.84;5082846;27;47111;-75
2023/05/12 11:04:40;;;;;;;;;11.00;10.67;;;;;-149.00;100.00;66333.84;5082440;27;46272;-75